createdAt,value
2022-12-19T00:01:37.194Z,11.88
2022-12-19T00:04:09.234Z,10.20
2022-12-19T00:06:37.683Z,12.13
2022-12-19T00:09:05.448Z,11.65
2022-12-19T00:11:33.090Z,12.73
2022-12-19T00:14:00.833Z,12.52
2022-12-19T00:16:29.128Z,10.68
2022-12-19T00:18:57.796Z,10.98
2022-12-19T00:21:25.977Z,12.15
2022-12-19T00:23:53.509Z,13.23
2022-12-19T00:26:22.140Z,10.70
2022-12-19T00:28:50.621Z,11.27
2022-12-19T00:31:18.408Z,11.40
2022-12-19T00:33:45.651Z,12.90
2022-12-19T00:36:13.930Z,13.05
2022-12-19T00:38:42.102Z,10.90
2022-12-19T00:41:10.504Z,13.20
2022-12-19T00:43:37.952Z,12.95
2022-12-19T00:46:05.770Z,12.35
2022-12-19T00:48:33.618Z,12.27
2022-12-19T00:51:12.615Z,11.50
2022-12-19T00:53:39.737Z,11.55
2022-12-19T00:56:08.390Z,11.57
2022-12-19T00:58:35.825Z,12.05
2022-12-19T01:01:10.230Z,13.40
2022-12-19T01:03:37.438Z,11.02
2022-12-19T01:06:04.924Z,13.55
2022-12-19T01:08:32.408Z,12.63
2022-12-19T01:10:59.655Z,12.45
2022-12-19T01:13:28.053Z,11.68
2022-12-19T01:15:55.221Z,9.80
2022-12-19T01:18:22.483Z,10.95
2022-12-19T01:20:49.643Z,12.10
2022-12-19T01:23:17.257Z,10.70
2022-12-19T01:25:45.263Z,12.23
2022-12-19T01:28:15.533Z,12.05
2022-12-19T01:30:43.270Z,12.45
2022-12-19T01:33:14.228Z,10.60
2022-12-19T01:35:42.264Z,11.13
2022-12-19T01:38:14.002Z,11.27
2022-12-19T01:40:41.317Z,11.68
2022-12-19T01:43:15.076Z,11.32
2022-12-19T01:45:45.924Z,11.50
2022-12-19T01:48:16.146Z,10.02
2022-12-19T01:50:51.977Z,12.07
2022-12-19T01:53:30.541Z,10.80
2022-12-19T01:55:57.610Z,11.40
2022-12-19T01:58:25.089Z,10.75
2022-12-19T02:00:52.469Z,11.82
2022-12-19T02:03:28.626Z,11.55
2022-12-19T02:05:56.084Z,12.63
2022-12-19T02:08:25.349Z,11.75
2022-12-19T02:10:52.543Z,10.60
2022-12-19T02:13:20.117Z,12.30
2022-12-19T02:15:47.197Z,11.35
2022-12-19T02:18:17.104Z,11.73
2022-12-19T02:20:50.371Z,12.30
2022-12-19T02:23:36.051Z,12.05
2022-12-19T02:26:28.559Z,12.20
2022-12-19T02:31:42.081Z,11.65
2022-12-19T02:34:30.367Z,11.43
2022-12-19T02:37:09.723Z,9.68
2022-12-19T02:39:40.151Z,10.63
2022-12-19T02:42:10.739Z,12.15
2022-12-19T02:47:07.346Z,11.38
2022-12-19T02:49:35.644Z,13.55
2022-12-19T02:52:11.906Z,12.52
2022-12-19T02:54:40.728Z,12.07
2022-12-19T02:57:12.215Z,13.20
2022-12-19T02:59:52.361Z,12.70
2022-12-19T03:02:24.890Z,12.70
2022-12-19T03:04:59.555Z,13.13
2022-12-19T03:07:37.907Z,12.80
2022-12-19T03:10:20.354Z,12.75
2022-12-19T03:12:51.422Z,13.40
2022-12-19T03:15:18.979Z,13.18
2022-12-19T03:17:46.117Z,13.57
2022-12-19T03:20:36.296Z,13.02
2022-12-19T03:23:03.415Z,13.68
2022-12-19T03:25:31.430Z,13.60
2022-12-19T03:28:02.258Z,14.70
2022-12-19T03:30:30.068Z,16.33
2022-12-19T03:32:57.281Z,16.35
2022-12-19T03:35:27.367Z,16.25
2022-12-19T03:37:59.394Z,15.30
2022-12-19T03:43:09.062Z,14.93
2022-12-19T03:45:42.865Z,14.32
2022-12-19T03:48:13.222Z,13.07
2022-12-19T03:50:59.062Z,16.25
2022-12-19T03:53:32.232Z,15.23
2022-12-19T03:56:04.093Z,15.57
2022-12-19T03:58:33.495Z,15.23
2022-12-19T04:01:01.780Z,13.88
2022-12-19T04:03:30.236Z,14.30
2022-12-19T04:05:58.226Z,15.15
2022-12-19T04:08:25.829Z,12.90
2022-12-19T04:10:56.129Z,14.15
2022-12-19T04:13:42.431Z,15.80
2022-12-19T04:16:13.790Z,16.08
2022-12-19T04:18:42.785Z,16.02
2022-12-19T04:21:13.637Z,14.68
2022-12-19T04:23:43.486Z,14.70
2022-12-19T04:26:11.472Z,15.57
2022-12-19T04:28:44.454Z,15.20
2022-12-19T04:31:15.909Z,15.55
2022-12-19T04:33:43.175Z,15.23
2022-12-19T04:36:11.034Z,14.27
2022-12-19T04:38:38.342Z,13.65
2022-12-19T04:41:05.451Z,14.48
2022-12-19T04:43:32.575Z,14.27
2022-12-19T04:45:59.834Z,15.30
2022-12-19T04:48:29.719Z,15.02
2022-12-19T04:50:57.143Z,14.00
2022-12-19T04:53:24.368Z,15.10
2022-12-19T04:55:51.564Z,13.52
2022-12-19T04:58:21.916Z,14.02
2022-12-19T05:00:49.650Z,14.80
2022-12-19T05:03:16.784Z,15.00
2022-12-19T05:05:44.033Z,13.77
2022-12-19T05:08:11.403Z,15.18
2022-12-19T05:10:39.141Z,14.13
2022-12-19T05:13:06.789Z,14.73
2022-12-19T05:15:34.108Z,14.20
2022-12-19T05:18:01.215Z,13.52
2022-12-19T05:20:28.614Z,13.85
2022-12-19T05:22:55.762Z,13.43
2022-12-19T05:25:22.906Z,13.35
2022-12-19T05:27:50.048Z,14.27
2022-12-19T05:30:17.229Z,13.43
2022-12-19T05:32:44.454Z,13.43
2022-12-19T05:35:11.540Z,12.43
2022-12-19T05:37:38.668Z,14.45
2022-12-19T05:40:06.046Z,13.60
2022-12-19T05:42:33.182Z,12.18
2022-12-19T05:45:00.277Z,12.63
2022-12-19T05:47:27.386Z,11.07
2022-12-19T05:49:54.494Z,10.52
2022-12-19T05:52:21.593Z,11.55
2022-12-19T05:54:48.895Z,12.18
2022-12-19T05:57:16.276Z,11.45
2022-12-19T05:59:43.382Z,10.45
2022-12-19T06:02:10.635Z,12.75
2022-12-19T06:04:37.863Z,12.10
2022-12-19T06:07:05.506Z,11.25
2022-12-19T06:09:32.643Z,12.18
2022-12-19T06:11:59.737Z,11.60
2022-12-19T06:14:26.926Z,11.70
2022-12-19T06:16:54.156Z,11.13
2022-12-19T06:19:21.641Z,11.43
2022-12-19T06:21:49.007Z,10.55
2022-12-19T06:24:16.281Z,10.10
2022-12-19T06:26:43.586Z,9.70
2022-12-19T06:29:10.694Z,10.75
2022-12-19T06:31:37.942Z,10.50
2022-12-19T06:34:05.407Z,11.63
2022-12-19T06:36:32.547Z,11.48
2022-12-19T06:38:59.828Z,11.18
2022-12-19T06:41:46.529Z,11.32
2022-12-19T06:44:14.990Z,10.43
2022-12-19T06:46:42.363Z,11.57
2022-12-19T06:49:10.594Z,10.00
2022-12-19T06:51:37.942Z,11.27
2022-12-19T06:54:05.101Z,10.77
2022-12-19T06:56:36.258Z,10.73
2022-12-19T06:59:03.657Z,10.57
2022-12-19T07:01:34.124Z,9.98
2022-12-19T07:04:01.358Z,10.13
2022-12-19T07:06:29.013Z,10.45
2022-12-19T07:08:56.162Z,10.30
2022-12-19T07:11:23.353Z,9.10
2022-12-19T07:13:50.418Z,9.82
2022-12-19T07:16:17.534Z,10.25
2022-12-19T07:18:44.819Z,10.25
2022-12-19T07:21:12.128Z,9.70
2022-12-19T07:23:39.588Z,9.73
2022-12-19T07:26:06.810Z,10.00
2022-12-19T07:28:35.213Z,9.38
2022-12-19T07:31:02.498Z,8.48
2022-12-19T07:33:29.674Z,9.50
2022-12-19T07:35:56.856Z,9.98
2022-12-19T07:38:24.096Z,10.15
2022-12-19T07:40:51.203Z,9.40
2022-12-19T07:43:18.316Z,9.23
2022-12-19T07:45:45.556Z,8.50
2022-12-19T07:48:12.775Z,9.75
2022-12-19T07:50:40.031Z,8.55
2022-12-19T07:53:07.149Z,8.32
2022-12-19T07:55:34.658Z,8.80
2022-12-19T07:58:01.791Z,8.77
2022-12-19T08:00:28.861Z,8.40
2022-12-19T08:02:56.088Z,9.60
2022-12-19T08:05:23.346Z,8.90
2022-12-19T08:07:50.635Z,9.48
2022-12-19T08:10:19.323Z,9.40
2022-12-19T08:12:46.553Z,6.22
2022-12-19T08:15:13.681Z,8.30
2022-12-19T08:17:40.870Z,8.65
2022-12-19T08:20:08.775Z,7.93
2022-12-19T08:22:35.968Z,8.85
2022-12-19T08:25:03.164Z,9.52
2022-12-19T08:27:30.428Z,8.45
2022-12-19T08:29:57.611Z,9.95
2022-12-19T08:32:24.742Z,8.95
2022-12-19T08:34:51.921Z,9.60
2022-12-19T08:37:19.071Z,8.65
2022-12-19T08:39:46.212Z,8.38
2022-12-19T08:42:13.275Z,8.07
2022-12-19T08:44:40.530Z,8.63
2022-12-19T08:47:07.709Z,7.97
2022-12-19T08:49:34.814Z,11.20
2022-12-19T08:52:02.047Z,8.88
2022-12-19T08:54:29.225Z,9.20
2022-12-19T08:56:56.404Z,8.73
2022-12-19T08:59:31.254Z,9.75
2022-12-19T09:02:00.145Z,8.98
2022-12-19T09:05:16.089Z,9.43
2022-12-19T09:07:15.604Z,10.35
2022-12-19T09:09:43.221Z,9.43
2022-12-19T09:12:10.493Z,9.40
2022-12-19T09:14:37.687Z,8.80
2022-12-19T09:17:05.048Z,9.68
2022-12-19T09:19:32.733Z,8.93
2022-12-19T09:21:59.996Z,9.75
2022-12-19T09:24:27.136Z,9.80
2022-12-19T09:26:54.307Z,9.27
2022-12-19T09:29:22.159Z,9.00
2022-12-19T09:31:51.579Z,9.27
2022-12-19T09:34:23.454Z,9.90
2022-12-19T09:36:51.910Z,10.27
2022-12-19T09:39:19.089Z,8.38
2022-12-19T09:41:46.233Z,9.32
2022-12-19T09:44:16.529Z,9.57
2022-12-19T09:46:53.637Z,9.23
2022-12-19T09:49:23.352Z,8.07
2022-12-19T09:51:59.508Z,8.27
2022-12-19T09:54:33.199Z,7.72
2022-12-19T09:57:02.034Z,8.18
2022-12-19T09:59:41.253Z,7.85
2022-12-19T10:02:30.612Z,8.45
2022-12-19T10:05:48.473Z,7.65
2022-12-19T10:08:17.601Z,8.05
2022-12-19T10:12:38.174Z,8.45
2022-12-19T10:13:52.859Z,8.43
2022-12-19T10:16:26.586Z,8.07
2022-12-19T10:18:58.124Z,6.88
2022-12-19T10:21:58.832Z,7.43
2022-12-19T10:24:30.154Z,8.15
2022-12-19T10:27:01.737Z,7.30
2022-12-19T10:29:28.877Z,6.88
2022-12-19T10:32:14.302Z,7.50
2022-12-19T10:34:43.307Z,6.72
2022-12-19T10:37:35.225Z,6.47
2022-12-19T10:40:15.619Z,6.28
2022-12-19T10:43:16.350Z,7.03
2022-12-19T10:45:52.651Z,7.15
2022-12-19T10:48:21.317Z,6.63
2022-12-19T10:50:58.313Z,6.03
2022-12-19T10:53:32.149Z,6.93
2022-12-19T10:56:03.540Z,6.35
2022-12-19T10:58:35.324Z,6.50
2022-12-19T11:01:35.550Z,6.40
2022-12-19T11:04:14.877Z,5.80
2022-12-19T11:06:47.370Z,6.47
2022-12-19T11:09:18.363Z,6.57
2022-12-19T11:16:58.319Z,6.82
2022-12-19T11:17:55.009Z,6.15
2022-12-19T11:24:23.743Z,6.63
2022-12-19T11:29:30.548Z,6.43
2022-12-19T11:29:33.481Z,7.15
2022-12-19T11:29:34.226Z,5.90
2022-12-19T11:29:39.635Z,6.53
2022-12-19T11:34:25.464Z,5.95
2022-12-19T11:37:01.622Z,6.07
2022-12-19T11:39:44.935Z,6.78
2022-12-19T11:42:15.786Z,6.05
2022-12-19T11:44:49.199Z,6.43
2022-12-19T11:47:32.464Z,6.22
2022-12-19T11:50:02.311Z,6.78
2022-12-19T11:55:44.421Z,6.32
2022-12-19T11:58:11.988Z,6.55
2022-12-19T12:00:50.340Z,6.57
2022-12-19T12:03:20.594Z,6.20
2022-12-19T12:05:52.322Z,6.68
2022-12-19T12:11:03.707Z,6.88
2022-12-19T12:18:53.006Z,5.38
2022-12-19T12:22:53.459Z,6.93
2022-12-19T12:26:21.429Z,6.05
2022-12-19T12:31:21.921Z,6.88
2022-12-19T12:31:31.254Z,5.85
2022-12-19T12:31:44.728Z,6.18
2022-12-19T12:32:04.211Z,7.40
2022-12-19T12:35:28.680Z,5.88
2022-12-19T12:40:42.814Z,6.30
2022-12-19T12:43:18.805Z,6.47
2022-12-19T12:45:47.252Z,6.65
2022-12-19T12:48:18.120Z,6.45
2022-12-19T12:50:53.241Z,6.70
2022-12-19T12:53:24.856Z,6.70
2022-12-19T12:55:52.846Z,6.43
2022-12-19T12:58:58.342Z,6.25
2022-12-19T13:01:39.132Z,6.05
2022-12-19T13:04:16.814Z,6.63
2022-12-19T13:07:02.812Z,6.20
2022-12-19T13:09:31.193Z,6.05
2022-12-19T13:12:22.341Z,5.28
2022-12-19T13:14:50.461Z,5.32
2022-12-19T13:17:25.517Z,5.88
2022-12-19T13:19:54.659Z,5.80
2022-12-19T13:22:23.401Z,6.22
2022-12-19T13:24:54.807Z,5.93
2022-12-19T13:27:22.542Z,5.45
2022-12-19T13:30:03.764Z,5.13
2022-12-19T13:32:53.984Z,5.63
2022-12-19T13:36:41.203Z,5.70
2022-12-19T13:39:55.327Z,5.07
2022-12-19T13:41:25.154Z,5.03
2022-12-19T13:43:56.383Z,4.35
2022-12-19T13:46:23.574Z,5.10
2022-12-19T13:48:52.994Z,4.78
2022-12-19T13:51:20.215Z,5.30
2022-12-19T13:53:47.481Z,4.88
2022-12-19T13:56:16.351Z,4.68
2022-12-19T13:58:58.212Z,4.95
2022-12-19T14:01:29.633Z,4.72
2022-12-19T14:03:58.889Z,4.65
2022-12-19T14:06:42.897Z,4.47
2022-12-19T14:11:29.108Z,5.07
2022-12-19T14:13:52.412Z,4.82
2022-12-19T14:17:49.704Z,4.63
2022-12-19T14:22:01.498Z,5.30
2022-12-19T14:23:36.914Z,5.03
2022-12-19T14:28:17.243Z,4.18
2022-12-19T14:29:03.445Z,4.03
2022-12-19T14:31:33.033Z,3.97
2022-12-19T14:36:48.760Z,5.53
2022-12-19T14:39:27.112Z,3.72
2022-12-19T14:42:20.586Z,4.28
2022-12-19T14:52:25.481Z,4.20
2022-12-19T14:53:51.782Z,4.28
2022-12-19T14:54:37.067Z,3.67
2022-12-19T14:54:47.717Z,4.03
2022-12-19T14:59:00.949Z,4.43
2022-12-19T15:01:29.894Z,4.47
2022-12-19T15:04:52.200Z,3.90
2022-12-19T15:07:08.848Z,4.97
2022-12-19T15:11:03.004Z,4.65
2022-12-19T15:14:04.174Z,4.38
2022-12-19T15:15:41.137Z,4.55
2022-12-19T15:18:23.463Z,4.90
2022-12-19T15:23:22.363Z,4.03
2022-12-19T15:26:07.118Z,4.47
2022-12-19T15:28:42.255Z,4.75
2022-12-19T15:31:33.036Z,4.30
2022-12-19T15:34:32.814Z,4.53
2022-12-19T15:36:47.467Z,4.60
2022-12-19T15:39:17.457Z,4.15
2022-12-19T15:41:45.816Z,3.72
2022-12-19T15:44:17.556Z,4.97
2022-12-19T15:46:48.982Z,4.85
2022-12-19T15:51:43.941Z,4.13
2022-12-19T15:56:58.231Z,5.03
2022-12-19T15:59:34.747Z,4.93
2022-12-19T16:02:04.527Z,5.55
2022-12-19T16:04:31.822Z,4.45
2022-12-19T16:06:59.237Z,4.55
2022-12-19T16:09:30.226Z,4.35
2022-12-19T16:11:58.190Z,4.55
2022-12-19T16:14:25.873Z,4.25
2022-12-19T16:16:53.855Z,5.10
2022-12-19T16:19:25.040Z,5.15
2022-12-19T16:21:52.326Z,5.03
2022-12-19T16:24:19.887Z,4.70
2022-12-19T16:26:52.432Z,4.97
2022-12-19T16:29:21.256Z,5.30
2022-12-19T16:31:48.500Z,5.20
2022-12-19T16:34:17.081Z,5.35
2022-12-19T16:36:44.839Z,4.88
2022-12-19T16:39:12.001Z,4.72
2022-12-19T16:41:41.720Z,5.78
2022-12-19T16:44:20.875Z,5.63
2022-12-19T16:46:50.960Z,5.75
2022-12-19T16:49:25.286Z,5.75
2022-12-19T16:51:52.547Z,6.00
2022-12-19T16:54:20.112Z,6.05
2022-12-19T16:56:49.234Z,6.38
2022-12-19T16:59:20.190Z,6.85
2022-12-19T17:01:47.669Z,7.13
2022-12-19T17:04:15.993Z,7.20
2022-12-19T17:06:43.276Z,7.10
2022-12-19T17:09:14.306Z,6.20
2022-12-19T17:11:41.627Z,7.85
2022-12-19T17:14:12.930Z,6.47
2022-12-19T17:16:40.115Z,6.35
2022-12-19T17:19:07.341Z,7.22
2022-12-19T17:21:34.487Z,7.43
2022-12-19T17:24:01.661Z,7.10
2022-12-19T17:26:28.908Z,6.63
2022-12-19T17:28:56.037Z,6.18
2022-12-19T17:31:23.229Z,6.30
2022-12-19T17:33:50.871Z,6.72
2022-12-19T17:36:21.345Z,6.32
2022-12-19T17:38:52.105Z,6.28
2022-12-19T17:41:19.242Z,5.60
2022-12-19T17:43:46.282Z,6.10
2022-12-19T17:46:17.662Z,5.88
2022-12-19T17:48:45.366Z,6.85
2022-12-19T17:51:13.730Z,5.13
2022-12-19T17:53:40.857Z,6.03
2022-12-19T17:56:11.063Z,5.88
2022-12-19T17:58:38.450Z,5.95
2022-12-19T18:01:05.572Z,4.97
2022-12-19T18:03:32.849Z,5.55
2022-12-19T18:06:00.080Z,5.07
2022-12-19T18:08:33.479Z,4.97
2022-12-19T18:11:01.502Z,4.85
2022-12-19T18:13:30.047Z,4.80
2022-12-19T18:15:58.634Z,4.63
2022-12-19T18:18:30.330Z,4.95
2022-12-19T18:20:58.249Z,4.65
2022-12-19T18:23:25.407Z,5.38
2022-12-19T18:25:57.599Z,5.10
2022-12-19T18:28:28.300Z,5.05
2022-12-19T18:30:57.212Z,4.85
2022-12-19T18:33:24.756Z,5.07
2022-12-19T18:35:52.131Z,4.60
2022-12-19T18:38:20.508Z,4.70
2022-12-19T18:40:48.687Z,4.53
2022-12-19T18:43:17.224Z,5.05
2022-12-19T18:45:47.268Z,4.28
2022-12-19T18:48:18.301Z,4.68
2022-12-19T18:50:45.393Z,4.90
2022-12-19T18:53:14.767Z,4.93
2022-12-19T18:55:42.009Z,4.13
2022-12-19T18:58:09.127Z,3.63
2022-12-19T19:00:38.446Z,4.20
2022-12-19T19:03:07.244Z,4.10
2022-12-19T19:05:35.612Z,4.15
2022-12-19T19:08:12.068Z,5.07
2022-12-19T19:10:42.238Z,4.70
2022-12-19T19:13:10.577Z,5.28
2022-12-19T19:15:41.011Z,4.40
2022-12-19T19:18:08.573Z,5.10
2022-12-19T19:20:40.023Z,4.40
2022-12-19T19:23:09.807Z,4.90
2022-12-19T19:25:37.268Z,4.50
2022-12-19T19:28:06.248Z,4.05
2022-12-19T19:30:35.289Z,4.50
2022-12-19T19:33:07.373Z,5.10
2022-12-19T19:38:02.466Z,4.80
2022-12-19T19:40:29.581Z,4.43
2022-12-19T19:42:56.612Z,4.97
2022-12-19T19:45:23.777Z,4.20
2022-12-19T19:47:50.943Z,4.40
2022-12-19T19:50:18.310Z,3.67
2022-12-19T19:52:45.501Z,4.03
2022-12-19T19:55:14.761Z,4.78
2022-12-19T19:57:41.921Z,4.43
2022-12-19T20:00:09.541Z,3.72
2022-12-19T20:02:37.035Z,4.68
2022-12-19T20:05:04.525Z,3.83
2022-12-19T20:07:31.772Z,3.95
2022-12-19T20:09:58.915Z,3.70
2022-12-19T20:12:26.073Z,4.10
2022-12-19T20:14:53.217Z,3.90
2022-12-19T20:17:20.484Z,3.78
2022-12-19T20:19:47.623Z,3.88
2022-12-19T20:22:14.817Z,4.00
2022-12-19T20:24:41.963Z,3.75
2022-12-19T20:27:09.116Z,3.53
2022-12-19T20:29:36.587Z,3.70
2022-12-19T20:32:05.158Z,3.88
2022-12-19T20:34:33.049Z,3.42
2022-12-19T20:37:00.173Z,3.30
2022-12-19T20:39:27.484Z,3.20
2022-12-19T20:41:54.731Z,2.97
2022-12-19T20:44:24.430Z,3.00
2022-12-19T20:46:52.521Z,3.47
2022-12-19T20:49:19.731Z,3.38
2022-12-19T20:51:47.709Z,3.55
2022-12-19T20:54:15.766Z,3.42
2022-12-19T20:56:43.235Z,3.33
2022-12-19T20:59:10.513Z,2.78
2022-12-19T21:01:38.302Z,2.70
2022-12-19T21:04:05.781Z,2.53
2022-12-19T21:06:33.236Z,2.70
2022-12-19T21:09:00.405Z,2.50
2022-12-19T21:11:27.639Z,3.17
2022-12-19T21:13:54.925Z,2.67
2022-12-19T21:16:23.244Z,3.03
2022-12-19T21:18:51.177Z,2.75
2022-12-19T21:21:20.110Z,2.63
2022-12-19T21:23:47.528Z,2.70
2022-12-19T21:26:14.887Z,2.88
2022-12-19T21:28:42.145Z,2.50
2022-12-19T21:31:17.322Z,2.35
2022-12-19T21:33:45.534Z,2.78
2022-12-19T21:36:15.249Z,2.70
2022-12-19T21:38:42.524Z,2.63
2022-12-19T21:41:09.749Z,2.38
2022-12-19T21:43:37.631Z,2.63
2022-12-19T21:46:05.783Z,2.70
2022-12-19T21:48:36.123Z,2.65
2022-12-19T21:51:03.508Z,2.53
2022-12-19T21:53:30.633Z,3.03
2022-12-19T21:56:27.245Z,2.40
2022-12-19T21:59:01.945Z,2.53
2022-12-19T22:01:29.802Z,3.30
2022-12-19T22:04:01.070Z,2.83
2022-12-19T22:06:30.312Z,2.65
2022-12-19T22:08:57.560Z,3.00
2022-12-19T22:11:25.514Z,3.05
2022-12-19T22:13:53.079Z,2.80
2022-12-19T22:16:20.380Z,2.72
2022-12-19T22:18:47.897Z,3.00
2022-12-19T22:21:15.882Z,2.67
2022-12-19T22:23:42.935Z,3.15
2022-12-19T22:26:12.869Z,2.55
2022-12-19T22:28:41.576Z,2.75
2022-12-19T22:31:35.125Z,2.60
2022-12-19T22:34:04.180Z,2.47
2022-12-19T22:36:32.404Z,3.00
2022-12-19T22:39:00.720Z,3.22
2022-12-19T22:41:28.306Z,2.40
2022-12-19T22:43:55.991Z,2.38
2022-12-19T22:46:26.282Z,2.65
2022-12-19T22:48:53.753Z,2.65
2022-12-19T22:51:21.011Z,2.55
2022-12-19T22:53:48.710Z,2.50
2022-12-19T22:56:17.871Z,2.40
2022-12-19T22:58:46.293Z,2.20
2022-12-19T23:01:13.788Z,2.40
2022-12-19T23:03:41.314Z,2.78
2022-12-19T23:06:08.569Z,2.97
2022-12-19T23:08:36.072Z,2.58
2022-12-19T23:11:06.197Z,2.65
2022-12-19T23:13:33.370Z,2.30
2022-12-19T23:16:00.496Z,2.50
2022-12-19T23:18:27.739Z,2.80
2022-12-19T23:21:09.253Z,2.50
2022-12-19T23:23:42.021Z,2.33
2022-12-19T23:26:15.600Z,2.30
2022-12-19T23:28:43.802Z,2.40
2022-12-19T23:31:12.165Z,2.65
2022-12-19T23:33:39.339Z,3.08
2022-12-19T23:36:06.667Z,2.75
2022-12-19T23:38:34.255Z,2.70
2022-12-19T23:41:06.200Z,2.28
2022-12-19T23:43:34.405Z,2.60
2022-12-19T23:46:05.495Z,2.45
2022-12-19T23:48:32.702Z,2.63
2022-12-19T23:51:00.897Z,2.63
2022-12-19T23:53:28.041Z,2.33
2022-12-19T23:55:55.300Z,2.03
2022-12-19T23:58:24.632Z,2.28
